Time;durP1;ratioP1;P1;durP2;ratioP2;P2;SDS_P1;SDS_P2;PMS_P1;PMS_P2;Temp;Humidity;BMP_temperature;BMP_pressure;BME280_temperature;BME280_humidity;BME280_pressure;Samples;Min_cycle;Max_cycle;Signal;HPM_P1;HPM_P2
2022/03/15 00:00:55;;;;;;;;;;;;;;;22.07;38.87;102633.03;5133339;27;19915;-89
2022/03/15 00:03:21;;;;;;;;;;;;;;;22.07;38.70;102628.34;5116388;27;19972;-89
2022/03/15 00:05:47;;;;;;;;;;;;;;;22.07;38.44;102624.75;5131943;27;20392;-91
2022/03/15 00:08:12;;;;;;;;;;;;;;;22.05;38.39;102622.31;5122009;27;20017;-88
2022/03/15 00:10:37;;;;;;;;;;;;;;;22.05;38.55;102627.81;5151072;27;20028;-90
2022/03/15 00:13:03;;;;;;;;;;;;;;;22.04;38.34;102626.13;5123755;27;19916;-90
2022/03/15 00:15:28;;;;;;;;;;;;;;;22.04;38.36;102624.22;5150354;27;20311;-89
2022/03/15 00:17:54;;;;;;;;;;;;;;;22.03;38.33;102616.25;5103947;28;19957;-89
2022/03/15 00:20:22;;;;;;;;;;;;;;;22.02;38.46;102609.91;5096617;27;19916;-90
2022/03/15 00:22:48;;;;;;;;;;;;;;;22.01;38.39;102613.75;5123144;27;19934;-90
2022/03/15 00:25:16;;;;;;;;;;;;;;;22.00;38.23;102612.13;5117846;27;20331;-90
2022/03/15 00:27:42;;;;;;;;;;;;;;;22.00;38.23;102616.81;5116394;27;19946;-90
2022/03/15 00:30:07;;;;;;;;;;;;;;;21.99;38.57;102621.44;5126554;27;19915;-90
2022/03/15 00:32:33;;;;;;;;;;;;;;;21.98;38.23;102619.81;5100834;27;20055;-90
2022/03/15 00:34:58;;;;;;;;;;;;;;;21.98;38.39;102624.50;5135875;27;20010;-90
2022/03/15 00:37:24;;;;;;;;;;;;;;;21.97;38.28;102618.19;5124782;27;20324;-88
2022/03/15 00:39:49;;;;;;;;;;;;;;;21.96;38.16;102616.50;5099000;27;19923;-91
2022/03/15 00:42:15;;;;;;;;;;;;;;;21.96;38.47;102612.94;5117873;27;20290;-88
2022/03/15 00:44:40;;;;;;;;;;;;;;;21.95;38.21;102606.63;5109951;28;19933;-91
2022/03/15 00:47:06;;;;;;;;;;;;;;;21.95;38.35;102606.63;5127066;27;20002;-91
2022/03/15 00:49:31;;;;;;;;;;;;;;;21.94;38.10;102607.69;5093954;28;19941;-90
2022/03/15 00:51:56;;;;;;;;;;;;;;;21.93;38.42;102600.56;5097611;28;19924;-91
2022/03/15 00:54:22;;;;;;;;;;;;;;;21.93;38.48;102602.47;5109165;27;20374;-91
2022/03/15 00:56:48;;;;;;;;;;;;;;;21.92;38.24;102603.56;5134843;27;19946;-91
2022/03/15 00:59:14;;;;;;;;;;;;;;;21.90;38.02;102603.84;5116949;27;19931;-91
2022/03/15 01:01:39;;;;;;;;;;;;;;;21.91;38.08;102607.44;5131979;27;19950;-91
2022/03/15 01:04:05;;;;;;;;;;;;;;;21.91;38.18;102607.44;5116520;27;20370;-91
2022/03/15 01:06:30;;;;;;;;;;;;;;;21.89;38.40;102602.19;5101048;27;19967;-91
2022/03/15 01:08:55;;;;;;;;;;;;;;;21.89;38.14;102610.44;5107334;27;19929;-91
2022/03/15 01:11:21;;;;;;;;;;;;;;;21.89;38.24;102606.88;5103153;28;19945;-91
2022/03/15 01:13:46;;;;;;;;;;;;;;;21.88;38.18;102602.47;5115414;27;20355;-90
2022/03/15 01:16:12;;;;;;;;;;;;;;;21.88;38.25;102610.75;5148756;27;20473;-91
2022/03/15 01:18:38;;;;;;;;;;;;;;;21.86;38.01;102611.00;5116106;27;20312;-91
2022/03/15 01:21:04;;;;;;;;;;;;;;;21.86;38.23;102607.44;5109950;28;19954;-91
2022/03/15 01:23:30;;;;;;;;;;;;;;;21.86;38.19;102597.25;5131185;27;19922;-91
2022/03/15 01:25:56;;;;;;;;;;;;;;;21.85;38.27;102594.75;5133769;27;19962;-91
2022/03/15 01:28:22;;;;;;;;;;;;;;;21.84;38.09;102596.69;5107092;28;19925;-91
2022/03/15 01:30:47;;;;;;;;;;;;;;;21.82;38.20;102594.22;5116666;27;19919;-90
2022/03/15 01:33:12;;;;;;;;;;;;;;;21.82;37.92;102582.38;5094666;27;19943;-91
2022/03/15 01:35:38;;;;;;;;;;;;;;;21.83;38.30;102581.28;5102740;27;19996;-91
2022/03/15 01:38:03;;;;;;;;;;;;;;;21.81;38.12;102584.31;5084919;27;19967;-91
2022/03/15 01:40:28;;;;;;;;;;;;;;;21.81;38.06;102578.81;5099328;27;19948;-90
2022/03/15 01:42:54;;;;;;;;;;;;;;;21.81;38.03;102577.97;5104896;28;20427;-91
2022/03/15 01:45:19;;;;;;;;;;;;;;;21.81;37.85;102572.47;5091392;27;19919;-88
2022/03/15 01:47:46;;;;;;;;;;;;;;;21.80;37.94;102576.34;5102124;28;19949;-92
2022/03/15 01:50:11;;;;;;;;;;;;;;;21.79;37.96;102571.91;5115560;27;19920;-91
2022/03/15 01:52:36;;;;;;;;;;;;;;;21.79;37.84;102563.66;5107202;28;19920;-91
2022/03/15 01:55:03;;;;;;;;;;;;;;;21.78;38.03;102567.53;5092290;27;19951;-90
2022/03/15 01:57:28;;;;;;;;;;;;;;;21.78;38.10;102564.78;5115977;27;19937;-90
2022/03/15 01:59:53;;;;;;;;;;;;;;;21.77;37.92;102565.88;5094507;27;19934;-90
2022/03/15 02:02:19;;;;;;;;;;;;;;;21.77;38.20;102568.63;5099464;27;19980;-90
2022/03/15 02:04:44;;;;;;;;;;;;;;;21.76;38.01;102561.47;5100948;28;19977;-90
2022/03/15 02:07:10;;;;;;;;;;;;;;;21.77;37.86;102554.88;5096681;28;19955;-90
2022/03/15 02:09:36;;;;;;;;;;;;;;;21.74;38.07;102550.75;5130877;27;19922;-91
2022/03/15 02:12:01;;;;;;;;;;;;;;;21.74;37.88;102547.97;5115531;27;19919;-90
2022/03/15 02:14:27;;;;;;;;;;;;;;;21.74;38.05;102547.97;5104055;28;20419;-90
2022/03/15 02:16:52;;;;;;;;;;;;;;;21.73;37.84;102546.34;5113574;27;20286;-90
2022/03/15 02:19:18;;;;;;;;;;;;;;;21.74;37.78;102538.91;5115885;27;20561;-91
2022/03/15 02:21:43;;;;;;;;;;;;;;;21.73;38.14;102540.03;5109423;27;19929;-91
2022/03/15 02:24:08;;;;;;;;;;;;;;;21.72;38.14;102535.59;5100259;28;19979;-90
2022/03/15 02:26:33;;;;;;;;;;;;;;;21.71;37.91;102534.78;5095684;28;19924;-90
2022/03/15 02:28:58;;;;;;;;;;;;;;;21.72;38.10;102530.09;5096643;28;19927;-90
2022/03/15 02:31:24;;;;;;;;;;;;;;;21.71;37.91;102526.53;5131354;27;19946;-89
2022/03/15 02:33:50;;;;;;;;;;;;;;;21.70;37.88;102530.41;5115811;27;19916;-90
2022/03/15 02:36:16;;;;;;;;;;;;;;;21.70;38.01;102524.09;5100247;27;19953;-90
2022/03/15 02:38:41;;;;;;;;;;;;;;;21.70;38.10;102521.34;5123572;27;19916;-92
2022/03/15 02:41:06;;;;;;;;;;;;;;;21.69;37.80;102522.41;5114720;27;19920;-90
2022/03/15 02:43:32;;;;;;;;;;;;;;;21.68;37.89;102518.84;5132951;27;20360;-91
2022/03/15 02:45:57;;;;;;;;;;;;;;;21.68;37.85;102515.28;5105903;28;19923;-91
2022/03/15 02:48:22;;;;;;;;;;;;;;;21.68;37.89;102513.34;5110916;27;20019;-90
2022/03/15 02:50:48;;;;;;;;;;;;;;;21.68;38.06;102513.34;5096159;28;19926;-90
2022/03/15 02:53:14;;;;;;;;;;;;;;;21.67;38.13;102510.84;5076891;28;19924;-90
2022/03/15 02:55:39;;;;;;;;;;;;;;;21.66;37.93;102504.53;5093517;28;20435;-90
2022/03/15 02:58:04;;;;;;;;;;;;;;;21.66;37.94;102503.72;5112856;28;20457;-91
2022/03/15 03:00:29;;;;;;;;;;;;;;;21.65;37.78;102493.81;5115492;27;19935;-90
2022/03/15 03:02:55;;;;;;;;;;;;;;;21.64;38.18;102490.22;5107474;28;19962;-90
2022/03/15 03:05:21;;;;;;;;;;;;;;;21.64;38.04;102489.41;5108439;28;19968;-90
2022/03/15 03:07:46;;;;;;;;;;;;;;;21.64;37.82;102489.41;5089694;28;20217;-89
2022/03/15 03:10:12;;;;;;;;;;;;;;;21.63;38.06;102494.09;5121353;28;19941;-90
2022/03/15 03:12:41;;;;;;;;;;;;;;;21.63;37.98;102493.28;5114264;28;19932;-91
2022/03/15 03:15:13;;;;;;;;;;;;;;;21.61;37.83;102488.84;5134816;27;19916;-90
2022/03/15 03:17:40;;;;;;;;;;;;;;;21.61;37.93;102485.28;5141781;28;19965;-90
2022/03/15 03:20:09;;;;;;;;;;;;;;;21.61;37.76;102482.53;5099521;28;19947;-90
2022/03/15 03:22:35;;;;;;;;;;;;;;;21.60;37.80;102476.22;5120580;27;19945;-90
2022/03/15 03:25:00;;;;;;;;;;;;;;;21.59;37.94;102469.06;5100638;28;20373;-90
2022/03/15 03:27:25;;;;;;;;;;;;;;;21.60;38.08;102478.16;5089032;28;20018;-89
2022/03/15 03:29:50;;;;;;;;;;;;;;;21.59;37.86;102468.22;5105531;28;19947;-90
2022/03/15 03:32:16;;;;;;;;;;;;;;;21.59;37.92;102474.56;5080951;28;19963;-90
2022/03/15 03:34:41;;;;;;;;;;;;;;;21.58;37.74;102472.09;5097940;28;19933;-91
2022/03/15 03:37:07;;;;;;;;;;;;;;;21.58;37.97;102470.16;5110802;28;19931;-91
2022/03/15 03:39:32;;;;;;;;;;;;;;;21.57;37.87;102471.28;5111170;28;19944;-90
2022/03/15 03:41:58;;;;;;;;;;;;;;;21.56;37.85;102466.84;5111008;28;19941;-89
2022/03/15 03:44:23;;;;;;;;;;;;;;;21.55;37.85;102465.22;5108620;28;19953;-90
2022/03/15 03:46:48;;;;;;;;;;;;;;;21.56;38.00;102469.59;5089727;27;20373;-89
2022/03/15 03:49:14;;;;;;;;;;;;;;;21.55;37.76;102476.22;5115624;28;20374;-89
2022/03/15 03:51:40;;;;;;;;;;;;;;;21.55;37.79;102478.97;5134023;27;19942;-89
2022/03/15 03:54:05;;;;;;;;;;;;;;;21.54;37.65;102468.22;5103262;27;19964;-89
2022/03/15 03:56:33;;;;;;;;;;;;;;;21.54;37.93;102469.06;5109897;28;20325;-90
2022/03/15 03:58:58;;;;;;;;;;;;;;;21.53;37.98;102467.41;5129405;27;19935;-89
2022/03/15 04:01:24;;;;;;;;;;;;;;;21.53;38.03;102466.59;5108171;28;19924;-89
2022/03/15 04:03:49;;;;;;;;;;;;;;;21.52;37.97;102465.78;5114606;27;19949;-89
2022/03/15 04:06:15;;;;;;;;;;;;;;;21.52;37.80;102468.53;5118747;27;19965;-89
2022/03/15 04:08:42;;;;;;;;;;;;;;;21.51;38.00;102469.59;5092412;27;19949;-89
2022/03/15 04:11:09;;;;;;;;;;;;;;;21.51;37.88;102468.78;5119087;27;19964;-89
2022/03/15 04:13:35;;;;;;;;;;;;;;;21.49;38.04;102471.81;5095666;28;20404;-90
2022/03/15 04:16:00;;;;;;;;;;;;;;;21.50;38.06;102478.97;5116373;27;19950;-92
2022/03/15 04:18:25;;;;;;;;;;;;;;;21.49;38.00;102474.56;5093739;27;19945;-92
2022/03/15 04:20:51;;;;;;;;;;;;;;;21.49;37.88;102479.22;5111762;27;19927;-90
2022/03/15 04:23:16;;;;;;;;;;;;;;;21.49;38.12;102474.56;5119461;27;20045;-89
2022/03/15 04:25:42;;;;;;;;;;;;;;;21.48;37.76;102472.91;5103736;28;19924;-90
2022/03/15 04:28:08;;;;;;;;;;;;;;;21.47;37.84;102474.03;5100798;27;19950;-89
2022/03/15 04:30:33;;;;;;;;;;;;;;;21.46;37.84;102480.59;5117870;27;19947;-90
2022/03/15 04:33:01;;;;;;;;;;;;;;;21.46;38.13;102468.78;5136170;27;20291;-89
2022/03/15 04:35:26;;;;;;;;;;;;;;;21.46;37.86;102469.59;5112911;27;19923;-89
2022/03/15 04:37:52;;;;;;;;;;;;;;;21.45;37.90;102469.91;5099310;27;20021;-89
2022/03/15 04:40:18;;;;;;;;;;;;;;;21.45;37.82;102470.72;5098217;28;19940;-89
2022/03/15 04:42:43;;;;;;;;;;;;;;;21.44;37.83;102463.56;5113371;27;19916;-89
2022/03/15 04:45:09;;;;;;;;;;;;;;;21.44;38.08;102463.56;5133784;27;19919;-90
2022/03/15 04:47:34;;;;;;;;;;;;;;;21.44;38.07;102465.47;5111274;27;20396;-88
2022/03/15 04:50:00;;;;;;;;;;;;;;;21.43;37.90;102461.91;5111186;27;20030;-89
2022/03/15 04:52:25;;;;;;;;;;;;;;;21.43;37.96;102452.84;5104157;28;20026;-89
2022/03/15 04:54:50;;;;;;;;;;;;;;;21.43;37.81;102455.59;5099714;28;19927;-86
2022/03/15 04:57:15;;;;;;;;;;;;;;;21.42;38.01;102446.53;5104812;27;19938;-90
2022/03/15 04:59:41;;;;;;;;;;;;;;;21.41;37.79;102450.38;5134234;27;19934;-88
2022/03/15 05:02:06;;;;;;;;;;;;;;;21.41;37.90;102435.81;5117520;27;20030;-88
2022/03/15 05:04:32;;;;;;;;;;;;;;;21.40;37.80;102443.22;5130414;27;19919;-90
2022/03/15 05:06:58;;;;;;;;;;;;;;;21.39;38.00;102439.66;5126072;27;19953;-91
2022/03/15 05:09:23;;;;;;;;;;;;;;;21.38;37.88;102438.00;5099946;28;19919;-91
2022/03/15 05:11:48;;;;;;;;;;;;;;;21.39;37.89;102436.06;5131835;27;19991;-91
2022/03/15 05:14:13;;;;;;;;;;;;;;;21.38;37.84;102437.13;5080974;28;19921;-88
2022/03/15 05:16:39;;;;;;;;;;;;;;;21.37;37.90;102439.06;5106584;28;20371;-91
2022/03/15 05:19:04;;;;;;;;;;;;;;;21.37;38.00;102444.56;5096712;27;19937;-89
2022/03/15 05:21:30;;;;;;;;;;;;;;;21.36;38.07;102437.41;5116248;27;19935;-89
2022/03/15 05:23:55;;;;;;;;;;;;;;;21.35;37.94;102435.78;5117353;27;19920;-89
2022/03/15 05:26:21;;;;;;;;;;;;;;;21.36;38.01;102433.84;5117696;27;20033;-89
2022/03/15 05:28:49;;;;;;;;;;;;;;;21.36;38.08;102436.59;5119262;27;19962;-89
2022/03/15 05:31:14;;;;;;;;;;;;;;;21.34;38.00;102428.63;5116164;27;19931;-89
2022/03/15 05:33:40;;;;;;;;;;;;;;;21.34;38.07;102425.88;5117664;27;19930;-90
2022/03/15 05:36:05;;;;;;;;;;;;;;;21.35;38.01;102423.94;5099186;27;20000;-89
2022/03/15 05:38:30;;;;;;;;;;;;;;;21.34;37.87;102422.28;5112630;27;19923;-88
2022/03/15 05:40:56;;;;;;;;;;;;;;;21.33;37.93;102426.97;5131742;27;19919;-90
2022/03/15 05:43:22;;;;;;;;;;;;;;;21.32;37.83;102419.84;5116921;27;19947;-90
2022/03/15 05:45:48;;;;;;;;;;;;;;;21.32;38.09;102419.84;5112452;27;19950;-91
2022/03/15 05:48:13;;;;;;;;;;;;;;;21.32;38.09;102408.03;5129872;27;20339;-88
2022/03/15 05:50:38;;;;;;;;;;;;;;;21.31;37.95;102409.91;5098729;27;19919;-88
2022/03/15 05:53:04;;;;;;;;;;;;;;;21.30;38.03;102413.78;5135488;27;19931;-87
2022/03/15 05:55:31;;;;;;;;;;;;;;;21.31;37.93;102414.59;5124595;27;19946;-90
2022/03/15 05:57:56;;;;;;;;;;;;;;;21.31;38.09;102406.34;5114754;27;19938;-88
2022/03/15 06:00:21;;;;;;;;;;;;;;;21.30;37.83;102399.22;5114398;27;19941;-89
2022/03/15 06:02:46;;;;;;;;;;;;;;;21.30;37.88;102413.78;5119440;27;19923;-89
2022/03/15 06:05:12;;;;;;;;;;;;;;;21.29;37.88;102403.91;5113329;27;19960;-89
2022/03/15 06:07:48;;;;;;;;;;;;;;;21.29;37.79;102405.78;5110647;27;19924;-89
2022/03/15 06:10:15;;;;;;;;;;;;;;;21.29;38.02;102403.91;5109822;27;19934;-91
2022/03/15 06:12:40;;;;;;;;;;;;;;;21.28;37.79;102398.66;5132292;27;19951;-90
2022/03/15 06:15:06;;;;;;;;;;;;;;;21.27;37.80;102400.59;5090016;28;20355;-90
2022/03/15 06:17:34;;;;;;;;;;;;;;;21.27;37.76;102400.59;5114893;28;19941;-89
2022/03/15 06:19:59;;;;;;;;;;;;;;;21.27;38.27;102392.34;5083183;28;19927;-82
2022/03/15 06:22:24;;;;;;;;;;;;;;;21.26;37.89;102390.69;5075124;28;20026;-83
2022/03/15 06:24:50;;;;;;;;;;;;;;;21.26;37.90;102395.34;5097036;27;19937;-82
2022/03/15 06:27:15;;;;;;;;;;;;;;;21.26;38.10;102396.19;5107903;28;20450;-82
2022/03/15 06:29:40;;;;;;;;;;;;;;;21.25;37.86;102397.28;5093712;27;19950;-81
2022/03/15 06:32:06;;;;;;;;;;;;;;;21.24;38.07;102401.13;5111804;27;19960;-83
2022/03/15 06:34:32;;;;;;;;;;;;;;;21.25;37.91;102397.28;5115221;27;19934;-85
2022/03/15 06:36:58;;;;;;;;;;;;;;;21.24;38.31;102397.56;5133349;27;19926;-83
2022/03/15 06:39:23;;;;;;;;;;;;;;;21.24;38.11;102384.63;5097012;27;19971;-86
2022/03/15 06:41:50;;;;;;;;;;;;;;;21.25;38.33;102390.97;5109676;27;19924;-84
2022/03/15 06:44:16;;;;;;;;;;;;;;;21.25;38.23;102390.97;5114880;27;19973;-83
2022/03/15 06:46:41;;;;;;;;;;;;;;;21.25;38.24;102396.47;5133157;27;20415;-84
2022/03/15 06:49:07;;;;;;;;;;;;;;;21.25;38.12;102393.72;5088280;28;19920;-84
2022/03/15 06:51:33;;;;;;;;;;;;;;;21.25;38.26;102393.72;5096318;28;19985;-83
2022/03/15 06:53:58;;;;;;;;;;;;;;;21.25;38.23;102389.03;5105382;27;19945;-83
2022/03/15 06:56:23;;;;;;;;;;;;;;;21.25;38.17;102385.47;5101466;28;20078;-86
2022/03/15 06:58:49;;;;;;;;;;;;;;;21.24;38.33;102387.38;5120620;28;19949;-86
2022/03/15 07:01:14;;;;;;;;;;;;;;;21.24;38.26;102384.63;5099327;28;20304;-83
2022/03/15 07:03:39;;;;;;;;;;;;;;;21.24;38.49;102383.81;5113363;28;19946;-87
2022/03/15 07:06:04;;;;;;;;;;;;;;;21.24;38.33;102389.31;5094084;28;20006;-84
2022/03/15 07:08:30;;;;;;;;;;;;;;;21.24;38.50;102390.13;5094834;28;20003;-82
2022/03/15 07:10:55;;;;;;;;;;;;;;;21.23;38.44;102388.50;5127513;28;20298;-84
2022/03/15 07:13:20;;;;;;;;;;;;;;;21.23;38.50;102387.66;5103538;28;19931;-82
2022/03/15 07:15:46;;;;;;;;;;;;;;;21.23;38.26;102380.25;5099905;28;20014;-81
2022/03/15 07:18:11;;;;;;;;;;;;;;;21.23;38.55;102377.50;5113078;28;19942;-82
2022/03/15 07:20:37;;;;;;;;;;;;;;;21.23;38.35;102366.50;5114265;28;20370;-82
2022/03/15 07:23:02;;;;;;;;;;;;;;;21.23;38.42;102368.44;5132315;28;20011;-78
2022/03/15 07:25:27;;;;;;;;;;;;;;;21.23;38.73;102372.00;5108281;28;20016;-83
2022/03/15 07:27:53;;;;;;;;;;;;;;;21.23;38.51;102373.94;5098818;27;19926;-84
2022/03/15 07:30:18;;;;;;;;;;;;;;;21.22;38.48;102370.34;5137084;27;19916;-79
2022/03/15 07:32:44;;;;;;;;;;;;;;;21.24;38.84;102364.56;5137207;27;19937;-80
2022/03/15 07:35:09;;;;;;;;;;;;;;;21.23;38.87;102366.50;5101000;27;19945;-84
2022/03/15 07:37:34;;;;;;;;;;;;;;;21.23;38.77;102358.25;5128455;27;19934;-82
2022/03/15 07:40:00;;;;;;;;;;;;;;;21.24;39.01;102361.81;5117748;27;19923;-80
2022/03/15 07:42:25;;;;;;;;;;;;;;;21.24;38.95;102357.16;5117044;27;19922;-90
2022/03/15 07:44:50;;;;;;;;;;;;;;;21.24;38.81;102359.06;5098847;27;20055;-81
2022/03/15 07:47:16;;;;;;;;;;;;;;;21.24;39.00;102359.06;5110353;27;19926;-81
2022/03/15 07:49:41;;;;;;;;;;;;;;;21.24;38.75;102359.06;5081287;27;19970;-83
2022/03/15 07:52:07;;;;;;;;;;;;;;;21.25;38.98;102364.31;5114993;27;19970;-80
2022/03/15 07:54:32;;;;;;;;;;;;;;;21.25;38.70;102366.25;5114815;27;19916;-82
2022/03/15 07:56:58;;;;;;;;;;;;;;;21.25;39.07;102369.81;5097026;28;19946;-82
2022/03/15 07:59:23;;;;;;;;;;;;;;;21.25;38.86;102369.00;5111642;27;19933;-83
2022/03/15 08:01:49;;;;;;;;;;;;;;;21.25;39.09;102375.31;5094384;28;20374;-82
2022/03/15 08:04:14;;;;;;;;;;;;;;;21.26;39.11;102370.63;5093802;28;19937;-82
2022/03/15 08:06:39;;;;;;;;;;;;;;;21.27;38.94;102364.00;5081512;28;20367;-81
2022/03/15 08:09:05;;;;;;;;;;;;;;;21.28;38.89;102357.44;5096404;28;20336;-83
2022/03/15 08:11:31;;;;;;;;;;;;;;;21.27;39.07;102350.28;5114981;27;20009;-82
2022/03/15 08:13:57;;;;;;;;;;;;;;;21.28;38.90;102361.00;5093162;28;20018;-82
2022/03/15 08:16:22;;;;;;;;;;;;;;;21.29;39.09;102353.56;5114197;27;19974;-82
2022/03/15 08:18:48;;;;;;;;;;;;;;;21.29;39.25;102350.81;5093673;28;19927;-81
2022/03/15 08:21:13;;;;;;;;;;;;;;;21.30;39.02;102352.50;5115760;27;19959;-83
2022/03/15 08:23:39;;;;;;;;;;;;;;;21.31;39.03;102354.13;5081809;27;20309;-84
2022/03/15 08:26:04;;;;;;;;;;;;;;;21.31;39.21;102348.63;5097771;28;20022;-83
2022/03/15 08:28:29;;;;;;;;;;;;;;;21.31;39.03;102340.38;5097516;28;19924;-83
2022/03/15 08:30:55;;;;;;;;;;;;;;;21.31;39.15;102343.13;5095932;28;20401;-86
2022/03/15 08:33:20;;;;;;;;;;;;;;;21.33;39.03;102338.19;5093640;27;19980;-82
2022/03/15 08:35:46;;;;;;;;;;;;;;;21.33;38.98;102343.69;5118631;27;20401;-85
2022/03/15 08:38:12;;;;;;;;;;;;;;;21.33;39.10;102335.44;5095787;28;19926;-82
2022/03/15 08:40:37;;;;;;;;;;;;;;;21.34;39.26;102339.81;5098563;28;20290;-81
2022/03/15 08:43:03;;;;;;;;;;;;;;;21.34;39.23;102332.44;5093918;28;19916;-82
2022/03/15 08:45:28;;;;;;;;;;;;;;;21.35;39.22;102327.75;5080251;27;19935;-82
2022/03/15 08:47:54;;;;;;;;;;;;;;;21.35;38.97;102331.31;5094235;28;20180;-85
2022/03/15 08:50:19;;;;;;;;;;;;;;;21.36;39.08;102327.44;5079363;28;19970;-82
2022/03/15 08:52:45;;;;;;;;;;;;;;;21.38;39.29;102333.53;5094704;27;19949;-81
2022/03/15 08:55:10;;;;;;;;;;;;;;;21.37;39.13;102329.13;5111576;28;20305;-82
2022/03/15 08:57:36;;;;;;;;;;;;;;;21.38;39.01;102332.69;5097728;28;19923;-81
2022/03/15 09:00:02;;;;;;;;;;;;;;;21.40;39.23;102338.75;5095599;27;19920;-84
2022/03/15 09:02:28;;;;;;;;;;;;;;;21.39;39.13;102332.44;5111537;27;20521;-82
2022/03/15 09:04:53;;;;;;;;;;;;;;;21.40;39.25;102333.28;5078025;28;19937;-84
2022/03/15 09:07:18;;;;;;;;;;;;;;;21.41;39.20;102336.84;5113357;27;19958;-84
2022/03/15 09:09:43;;;;;;;;;;;;;;;21.41;39.13;102336.84;5094345;27;19920;-80
2022/03/15 09:12:09;;;;;;;;;;;;;;;21.42;39.31;102338.47;5096804;27;19924;-83
2022/03/15 09:14:34;;;;;;;;;;;;;;;21.42;39.20;102338.47;5113599;27;19942;-83
2022/03/15 09:17:00;;;;;;;;;;;;;;;21.43;39.30;102334.63;5090178;28;19928;-87
2022/03/15 09:19:26;;;;;;;;;;;;;;;21.43;39.29;102332.72;5093204;28;19930;-85
2022/03/15 09:21:51;;;;;;;;;;;;;;;21.43;39.11;102331.91;5116024;27;19923;-84
2022/03/15 09:24:17;;;;;;;;;;;;;;;21.43;39.24;102329.97;5097999;27;19959;-83
2022/03/15 09:26:42;;;;;;;;;;;;;;;21.44;39.26;102337.09;5095087;27;19946;-84
2022/03/15 09:29:07;;;;;;;;;;;;;;;21.45;39.23;102327.75;5093853;27;19944;-82
2022/03/15 09:31:33;;;;;;;;;;;;;;;21.45;38.96;102325.00;5111235;27;19920;-85
2022/03/15 09:33:58;;;;;;;;;;;;;;;21.45;39.15;102325.00;5113723;27;20323;-83
2022/03/15 09:36:23;;;;;;;;;;;;;;;21.46;39.12;102323.91;5081842;27;19924;-82
2022/03/15 09:38:49;;;;;;;;;;;;;;;21.46;38.88;102320.34;5092369;28;20342;-84
2022/03/15 09:41:16;;;;;;;;;;;;;;;21.47;39.09;102327.47;5091936;28;19916;-84
2022/03/15 09:43:45;;;;;;;;;;;;;;;21.47;38.97;102316.47;5091394;28;19924;-83
2022/03/15 09:46:11;;;;;;;;;;;;;;;21.48;39.09;102320.88;5095841;27;20383;-84
2022/03/15 09:48:36;;;;;;;;;;;;;;;21.48;38.82;102318.94;5091684;28;19923;-84
2022/03/15 09:51:04;;;;;;;;;;;;;;;21.50;38.92;102325.00;5092493;28;20030;-83
2022/03/15 09:53:31;;;;;;;;;;;;;;;21.49;38.92;102315.09;5091996;28;19960;-84
2022/03/15 09:55:56;;;;;;;;;;;;;;;21.51;39.19;102314.81;5090574;28;19946;-83
2022/03/15 09:58:22;;;;;;;;;;;;;;;21.51;39.13;102317.56;5093552;28;19927;-85
2022/03/15 10:00:54;;;;;;;;;;;;;;;21.51;39.15;102315.63;5091775;28;19965;-81
2022/03/15 10:03:21;;;;;;;;;;;;;;;21.52;39.11;102309.06;5090799;28;20530;-82
2022/03/15 10:05:46;;;;;;;;;;;;;;;21.52;38.98;102314.56;5094347;27;20478;-88
2022/03/15 10:08:13;;;;;;;;;;;;;;;21.53;39.09;102309.88;5112394;27;20039;-82
2022/03/15 10:10:38;;;;;;;;;;;;;;;21.53;38.99;102310.69;5073831;27;19919;-82
2022/03/15 10:13:03;;;;;;;;;;;;;;;21.53;39.00;102307.94;5106303;27;19948;-83
2022/03/15 10:15:28;;;;;;;;;;;;;;;21.53;39.07;102307.13;5110024;28;20416;-84
2022/03/15 10:18:04;;;;;;;;;;;;;;;21.53;38.91;102299.69;5078246;27;19926;-84
2022/03/15 10:20:31;;;;;;;;;;;;;;;21.54;38.96;102301.31;5112740;27;19916;-84
2022/03/15 10:22:57;;;;;;;;;;;;;;;21.55;38.97;102297.50;5094042;28;19946;-81
2022/03/15 10:25:24;;;;;;;;;;;;;;;21.55;39.04;102294.75;5091714;28;19918;-83
2022/03/15 10:27:50;;;;;;;;;;;;;;;21.55;38.65;102292.00;5092247;28;19938;-85
2022/03/15 10:30:16;;;;;;;;;;;;;;;21.56;39.00;102292.81;5089280;28;19936;-85
2022/03/15 10:32:41;;;;;;;;;;;;;;;21.56;39.03;102279.88;5091182;28;19965;-86
2022/03/15 10:35:08;;;;;;;;;;;;;;;21.56;38.80;102271.63;5079332;27;19945;-85
2022/03/15 10:37:35;;;;;;;;;;;;;;;21.56;39.08;102273.56;5092685;28;19928;-85
2022/03/15 10:40:01;;;;;;;;;;;;;;;21.58;38.98;102274.13;5126041;27;20456;-85
2022/03/15 10:42:26;;;;;;;;;;;;;;;21.58;38.83;102268.63;5114413;27;19939;-87
2022/03/15 10:44:51;;;;;;;;;;;;;;;21.58;39.12;102277.69;5079704;28;19938;-84
2022/03/15 10:47:18;;;;;;;;;;;;;;;21.59;38.98;102267.50;5092115;28;19923;-84
2022/03/15 10:49:47;;;;;;;;;;;;;;;21.59;38.78;102267.50;5095258;28;19948;-84
2022/03/15 10:52:13;;;;;;;;;;;;;;;21.59;39.02;102265.56;5092312;28;19952;-86
2022/03/15 10:54:39;;;;;;;;;;;;;;;21.60;38.95;102261.72;5092566;28;19933;-86
2022/03/15 10:57:04;;;;;;;;;;;;;;;21.61;39.02;102259.81;5091985;28;19996;-84
2022/03/15 10:59:29;;;;;;;;;;;;;;;21.61;38.87;102255.13;5073856;28;19945;-86
2022/03/15 11:01:55;;;;;;;;;;;;;;;21.61;39.16;102255.13;5109689;28;20028;-86
2022/03/15 11:04:20;;;;;;;;;;;;;;;21.61;39.04;102246.06;5091762;28;19973;-87
2022/03/15 11:06:47;;;;;;;;;;;;;;;21.63;38.94;102248.53;5079672;28;19966;-84
2022/03/15 11:09:22;;;;;;;;;;;;;;;21.64;38.99;102241.91;5068928;28;19935;-86
2022/03/15 11:11:59;;;;;;;;;;;;;;;21.65;39.01;102235.34;5071664;28;19972;-89
2022/03/15 11:14:57;;;;;;;;;;;;;;;21.63;39.03;102230.09;5068343;28;20427;-82
2022/03/15 11:17:24;;;;;;;;;;;;;;;21.64;39.16;102225.41;5070211;28;20403;-85
2022/03/15 11:19:54;;;;;;;;;;;;;;;21.65;39.03;102224.34;5052281;28;19917;-83
2022/03/15 11:22:21;;;;;;;;;;;;;;;21.66;38.89;102220.47;5065931;28;20430;-84
2022/03/15 11:25:03;;;;;;;;;;;;;;;21.66;39.07;102224.03;5069751;28;20071;-84
2022/03/15 11:27:33;;;;;;;;;;;;;;;21.66;39.12;102214.97;5069268;28;20293;-83
2022/03/15 11:30:02;;;;;;;;;;;;;;;21.66;38.70;102215.78;5068018;28;19939;-87
2022/03/15 11:32:28;;;;;;;;;;;;;;;21.67;39.05;102208.34;5063564;28;20302;-85
2022/03/15 11:34:54;;;;;;;;;;;;;;;21.68;38.78;102207.25;5067820;28;19920;-86
2022/03/15 11:37:19;;;;;;;;;;;;;;;21.67;39.22;102197.34;5047830;28;19966;-84
2022/03/15 11:39:45;;;;;;;;;;;;;;;21.67;39.01;102203.69;5067990;28;20338;-84
2022/03/15 11:42:14;;;;;;;;;;;;;;;21.69;38.99;102206.16;5068045;28;19995;-85
2022/03/15 11:44:42;;;;;;;;;;;;;;;21.69;38.88;102198.72;5068549;28;19934;-85
2022/03/15 11:47:15;;;;;;;;;;;;;;;21.69;38.91;102204.22;5069424;28;19920;-87
2022/03/15 11:49:42;;;;;;;;;;;;;;;21.69;38.82;102195.16;5067568;28;19929;-84
2022/03/15 11:52:18;;;;;;;;;;;;;;;21.69;39.10;102193.22;5068441;28;19923;-87
2022/03/15 11:54:52;;;;;;;;;;;;;;;21.70;39.19;102189.38;5064213;28;19955;-86
2022/03/15 11:57:23;;;;;;;;;;;;;;;21.70;39.00;102183.06;5067880;28;19956;-84
2022/03/15 11:59:50;;;;;;;;;;;;;;;21.71;39.12;102184.69;5067763;28;19957;-85
2022/03/15 12:02:28;;;;;;;;;;;;;;;21.72;39.24;102178.06;5064864;28;19978;-86
2022/03/15 12:04:54;;;;;;;;;;;;;;;21.73;39.10;102175.06;5067650;28;20387;-85
2022/03/15 12:07:45;;;;;;;;;;;;;;;21.75;39.13;102169.28;5064307;28;19921;-85
2022/03/15 12:10:11;;;;;;;;;;;;;;;21.75;39.23;102166.53;5066383;28;19987;-85
2022/03/15 12:12:38;;;;;;;;;;;;;;;21.75;39.21;102163.78;5063189;28;19978;-85
2022/03/15 12:15:12;;;;;;;;;;;;;;;21.75;39.26;102164.59;5071963;28;20327;-85
2022/03/15 12:17:41;;;;;;;;;;;;;;;21.76;39.27;102155.22;5068238;28;20376;-85
2022/03/15 12:20:16;;;;;;;;;;;;;;;21.78;39.25;102154.94;5053336;28;20315;-86
2022/03/15 12:22:43;;;;;;;;;;;;;;;21.79;39.41;102156.59;5071221;28;19929;-85
2022/03/15 12:25:15;;;;;;;;;;;;;;;21.79;39.21;102151.09;5072586;28;19942;-85
2022/03/15 12:27:41;;;;;;;;;;;;;;;21.80;38.95;102145.31;5072406;28;19946;-85
2022/03/15 12:30:08;;;;;;;;;;;;;;;21.81;39.02;102148.88;5072428;28;19924;-85